sensor_id;sensor_type;location;lat;lon;timestamp;pressure;altitude;pressure_sealevel;temperature;humidity
48517;BME280;34310;51.904;4.256;2023-08-12T00:02:18;101798.38;;;25.15;57.51
48517;BME280;34310;51.904;4.256;2023-08-12T00:04:45;101786.75;;;25.09;57.65
48517;BME280;34310;51.904;4.256;2023-08-12T00:07:12;101786.91;;;25.15;57.76
48517;BME280;34310;51.904;4.256;2023-08-12T00:09:39;101777.06;;;25.09;57.45
48517;BME280;34310;51.904;4.256;2023-08-12T00:12:05;101789.50;;;25.13;57.68
48517;BME280;34310;51.904;4.256;2023-08-12T00:14:32;101769.88;;;25.04;57.68
48517;BME280;34310;51.904;4.256;2023-08-12T00:16:58;101781.56;;;25.13;57.60
48517;BME280;34310;51.904;4.256;2023-08-12T00:19:25;101783.31;;;25.13;57.57
48517;BME280;34310;51.904;4.256;2023-08-12T00:21:51;101777.16;;;25.12;57.79
48517;BME280;34310;51.904;4.256;2023-08-12T00:24:18;101774.50;;;25.12;57.69
48517;BME280;34310;51.904;4.256;2023-08-12T00:26:44;101770.94;;;25.10;57.65
48517;BME280;34310;51.904;4.256;2023-08-12T00:29:11;101759.31;;;25.04;57.66
48517;BME280;34310;51.904;4.256;2023-08-12T00:31:37;101763.88;;;25.11;57.71
48517;BME280;34310;51.904;4.256;2023-08-12T00:34:04;101762.06;;;25.08;57.83
48517;BME280;34310;51.904;4.256;2023-08-12T00:36:30;101759.47;;;25.10;57.66
48517;BME280;34310;51.904;4.256;2023-08-12T00:38:57;101757.69;;;25.09;57.64
48517;BME280;34310;51.904;4.256;2023-08-12T00:41:23;101758.56;;;25.09;57.86
48517;BME280;34310;51.904;4.256;2023-08-12T00:43:50;101758.53;;;25.08;57.63
48517;BME280;34310;51.904;4.256;2023-08-12T00:46:17;101754.09;;;25.07;57.79
48517;BME280;34310;51.904;4.256;2023-08-12T00:48:43;101760.28;;;25.07;57.64
48517;BME280;34310;51.904;4.256;2023-08-12T00:51:10;101760.28;;;25.07;57.65
48517;BME280;34310;51.904;4.256;2023-08-12T00:53:37;101754.91;;;25.04;57.69
48517;BME280;34310;51.904;4.256;2023-08-12T00:56:03;101746.13;;;25.05;57.55
48517;BME280;34310;51.904;4.256;2023-08-12T00:58:30;101743.50;;;25.05;57.67
48517;BME280;34310;51.904;4.256;2023-08-12T01:00:57;101739.97;;;25.05;57.70
48517;BME280;34310;51.904;4.256;2023-08-12T01:03:24;101746.09;;;25.04;57.69
48517;BME280;34310;51.904;4.256;2023-08-12T01:05:51;101731.94;;;25.01;57.54
48517;BME280;34310;51.904;4.256;2023-08-12T01:08:17;101731.09;;;25.02;57.77
48517;BME280;34310;51.904;4.256;2023-08-12T01:10:52;101732.84;;;25.02;57.74
48517;BME280;34310;51.904;4.256;2023-08-12T01:15:56;101729.31;;;25.01;57.56
48517;BME280;34310;51.904;4.256;2023-08-12T01:18:25;101715.09;;;24.98;57.49
48517;BME280;34310;51.904;4.256;2023-08-12T01:20:52;101719.59;;;25.00;57.79
48517;BME280;34310;51.904;4.256;2023-08-12T01:23:19;101719.41;;;24.94;57.60
48517;BME280;34310;51.904;4.256;2023-08-12T01:25:46;101726.63;;;25.00;57.80
48517;BME280;34310;51.904;4.256;2023-08-12T01:28:13;101716.84;;;24.97;57.86
48517;BME280;34310;51.904;4.256;2023-08-12T01:30:49;101707.03;;;24.92;57.51
48517;BME280;34310;51.904;4.256;2023-08-12T01:33:52;101709.81;;;24.98;57.54
48517;BME280;34310;51.904;4.256;2023-08-12T01:36:16;101710.75;;;24.98;57.67
48517;BME280;34310;51.904;4.256;2023-08-12T01:38:44;101712.41;;;24.96;57.76
48517;BME280;34310;51.904;4.256;2023-08-12T01:41:12;101702.75;;;24.97;57.64
48517;BME280;34310;51.904;4.256;2023-08-12T01:43:40;101687.59;;;24.90;57.60
48517;BME280;34310;51.904;4.256;2023-08-12T01:46:07;101700.97;;;24.96;57.76
48517;BME280;34310;51.904;4.256;2023-08-12T01:48:34;101702.72;;;24.95;57.82
48517;BME280;34310;51.904;4.256;2023-08-12T01:51:01;101702.66;;;24.94;57.81
48517;BME280;34310;51.904;4.256;2023-08-12T01:53:27;101684.91;;;24.88;57.86
48517;BME280;34310;51.904;4.256;2023-08-12T01:55:54;101694.69;;;24.92;57.84
48517;BME280;34310;51.904;4.256;2023-08-12T01:58:20;101689.31;;;24.88;57.65
48517;BME280;34310;51.904;4.256;2023-08-12T02:00:47;101686.66;;;24.88;57.80
48517;BME280;34310;51.904;4.256;2023-08-12T02:03:13;101685.03;;;24.93;57.85
48517;BME280;34310;51.904;4.256;2023-08-12T02:05:40;101671.66;;;24.87;57.83
48517;BME280;34310;51.904;4.256;2023-08-12T02:08:06;101688.50;;;24.90;57.87
48517;BME280;34310;51.904;4.256;2023-08-12T02:10:33;101692.03;;;24.91;57.73
48517;BME280;34310;51.904;4.256;2023-08-12T02:13:00;101685.81;;;24.89;57.71
48517;BME280;34310;51.904;4.256;2023-08-12T02:15:26;101672.50;;;24.86;57.89
48517;BME280;34310;51.904;4.256;2023-08-12T02:17:53;101686.75;;;24.91;57.59
48517;BME280;34310;51.904;4.256;2023-08-12T02:20:19;101674.25;;;24.85;57.99
48517;BME280;34310;51.904;4.256;2023-08-12T02:22:46;101676.13;;;24.89;58.02
48517;BME280;34310;51.904;4.256;2023-08-12T02:25:12;101674.38;;;24.90;57.87
48517;BME280;34310;51.904;4.256;2023-08-12T02:27:39;101674.38;;;24.90;57.67
48517;BME280;34310;51.904;4.256;2023-08-12T02:30:06;101662.88;;;24.88;57.81
48517;BME280;34310;51.904;4.256;2023-08-12T02:32:33;101661.16;;;24.88;58.06
48517;BME280;34310;51.904;4.256;2023-08-12T02:34:59;101665.53;;;24.88;57.87
48517;BME280;34310;51.904;4.256;2023-08-12T02:37:26;101661.16;;;24.88;58.04
48517;BME280;34310;51.904;4.256;2023-08-12T02:39:52;101660.19;;;24.86;57.73
48517;BME280;34310;51.904;4.256;2023-08-12T02:42:19;101661.03;;;24.85;57.67
48517;BME280;34310;51.904;4.256;2023-08-12T02:44:45;101650.34;;;24.81;57.91
48517;BME280;34310;51.904;4.256;2023-08-12T02:47:12;101663.75;;;24.87;57.84
48517;BME280;34310;51.904;4.256;2023-08-12T02:49:39;101658.47;;;24.87;57.68
48517;BME280;34310;51.904;4.256;2023-08-12T02:52:05;101654.00;;;24.86;57.88
48517;BME280;34310;51.904;4.256;2023-08-12T02:54:32;101649.63;;;24.86;57.98
48517;BME280;34310;51.904;4.256;2023-08-12T02:56:58;101635.47;;;24.84;57.91
48517;BME280;34310;51.904;4.256;2023-08-12T02:59:25;101639.00;;;24.85;57.84
48517;BME280;34310;51.904;4.256;2023-08-12T03:01:51;101634.59;;;24.84;58.06
48517;BME280;34310;51.904;4.256;2023-08-12T03:04:18;101625.75;;;24.83;57.95
48517;BME280;34310;51.904;4.256;2023-08-12T03:06:44;101628.41;;;24.83;57.75
48517;BME280;34310;51.904;4.256;2023-08-12T03:09:10;101632.78;;;24.83;57.84
48517;BME280;34310;51.904;4.256;2023-08-12T03:11:37;101628.38;;;24.82;58.04
48517;BME280;34310;51.904;4.256;2023-08-12T03:14:04;101616.84;;;24.78;57.81
48517;BME280;34310;51.904;4.256;2023-08-12T03:16:30;101625.72;;;24.82;58.05
48517;BME280;34310;51.904;4.256;2023-08-12T03:18:57;101623.94;;;24.81;57.71
48517;BME280;34310;51.904;4.256;2023-08-12T03:21:23;101620.41;;;24.80;57.92
48517;BME280;34310;51.904;4.256;2023-08-12T03:23:50;101608.03;;;24.78;57.87
48517;BME280;34310;51.904;4.256;2023-08-12T03:26:16;101612.47;;;24.80;57.71
48517;BME280;34310;51.904;4.256;2023-08-12T03:28:43;101603.56;;;24.75;58.04
48517;BME280;34310;51.904;4.256;2023-08-12T03:31:09;101613.34;;;24.79;57.85
48517;BME280;34310;51.904;4.256;2023-08-12T03:33:36;101610.69;;;24.79;58.01
48517;BME280;34310;51.904;4.256;2023-08-12T03:36:02;101606.28;;;24.78;57.88
48517;BME280;34310;51.904;4.256;2023-08-12T03:38:29;101604.53;;;24.79;57.87
48517;BME280;34310;51.904;4.256;2023-08-12T03:40:55;101603.63;;;24.78;57.88
48517;BME280;34310;51.904;4.256;2023-08-12T03:43:22;101597.47;;;24.78;57.86
48517;BME280;34310;51.904;4.256;2023-08-12T03:45:48;101593.03;;;24.77;57.89
48517;BME280;34310;51.904;4.256;2023-08-12T03:48:15;101589.50;;;24.76;57.91
48517;BME280;34310;51.904;4.256;2023-08-12T03:50:42;101586.84;;;24.76;58.04
48517;BME280;34310;51.904;4.256;2023-08-12T03:53:08;101583.31;;;24.76;57.89
48517;BME280;34310;51.904;4.256;2023-08-12T03:55:35;101565.56;;;24.68;57.92
48517;BME280;34310;51.904;4.256;2023-08-12T03:58:02;101570.09;;;24.74;58.05
48517;BME280;34310;51.904;4.256;2023-08-12T04:00:28;101563.03;;;24.73;57.82
48517;BME280;34310;51.904;4.256;2023-08-12T04:02:55;101564.81;;;24.74;58.05
48517;BME280;34310;51.904;4.256;2023-08-12T04:05:22;101552.31;;;24.67;58.02
48517;BME280;34310;51.904;4.256;2023-08-12T04:07:48;101551.56;;;24.73;58.07
48517;BME280;34310;51.904;4.256;2023-08-12T04:10:15;101549.78;;;24.71;58.00
48517;BME280;34310;51.904;4.256;2023-08-12T04:12:42;101546.25;;;24.71;58.29
48517;BME280;34310;51.904;4.256;2023-08-12T04:15:09;101550.63;;;24.70;57.79
48517;BME280;34310;51.904;4.256;2023-08-12T04:17:36;101543.47;;;24.65;57.98
48517;BME280;34310;51.904;4.256;2023-08-12T04:20:02;101550.63;;;24.70;58.12
48517;BME280;34310;51.904;4.256;2023-08-12T04:22:29;101548.84;;;24.69;57.79
48517;BME280;34310;51.904;4.256;2023-08-12T04:24:55;101549.75;;;24.70;57.96
48517;BME280;34310;51.904;4.256;2023-08-12T04:27:22;101543.56;;;24.69;57.81
48517;BME280;34310;51.904;4.256;2023-08-12T04:29:50;101532.88;;;24.63;57.88
48517;BME280;34310;51.904;4.256;2023-08-12T04:32:16;101548.84;;;24.69;57.89
48517;BME280;34310;51.904;4.256;2023-08-12T04:34:45;101547.06;;;24.68;57.92
48517;BME280;34310;51.904;4.256;2023-08-12T04:37:11;101540.03;;;24.69;57.96
48517;BME280;34310;51.904;4.256;2023-08-12T04:39:38;101544.44;;;24.68;58.01
48517;BME280;34310;51.904;4.256;2023-08-12T04:42:05;101540.00;;;24.67;58.05
48517;BME280;34310;51.904;4.256;2023-08-12T04:44:31;101515.06;;;24.56;58.02
48517;BME280;34310;51.904;4.256;2023-08-12T04:46:58;101536.47;;;24.67;57.92
48517;BME280;34310;51.904;4.256;2023-08-12T04:49:24;101529.41;;;24.66;57.91
48517;BME280;34310;51.904;4.256;2023-08-12T04:51:51;101526.75;;;24.66;58.00
48517;BME280;34310;51.904;4.256;2023-08-12T04:54:18;101517.91;;;24.64;58.05
48517;BME280;34310;51.904;4.256;2023-08-12T04:56:44;101528.50;;;24.65;58.06
48517;BME280;34310;51.904;4.256;2023-08-12T04:59:11;101532.03;;;24.66;57.97
48517;BME280;34310;51.904;4.256;2023-08-12T05:01:37;101512.53;;;24.59;58.12
48517;BME280;34310;51.904;4.256;2023-08-12T05:04:19;101532.91;;;24.65;57.92
48517;BME280;34310;51.904;4.256;2023-08-12T05:06:46;101531.16;;;24.65;58.14
48517;BME280;34310;51.904;4.256;2023-08-12T05:09:14;101531.91;;;24.60;58.01
48517;BME280;34310;51.904;4.256;2023-08-12T05:11:40;101533.75;;;24.64;58.19
48517;BME280;34310;51.904;4.256;2023-08-12T05:14:07;101533.75;;;24.64;58.00
48517;BME280;34310;51.904;4.256;2023-08-12T05:16:33;101535.50;;;24.63;57.92
48517;BME280;34310;51.904;4.256;2023-08-12T05:19:00;101524.94;;;24.63;58.02
48517;BME280;34310;51.904;4.256;2023-08-12T05:21:26;101525.81;;;24.62;58.04
48517;BME280;34310;51.904;4.256;2023-08-12T05:23:53;101521.22;;;24.57;58.10
48517;BME280;34310;51.904;4.256;2023-08-12T05:26:19;101525.69;;;24.58;58.06
48517;BME280;34310;51.904;4.256;2023-08-12T05:28:46;101521.38;;;24.61;58.28
48517;BME280;34310;51.904;4.256;2023-08-12T05:31:13;101527.53;;;24.62;57.88
48517;BME280;34310;51.904;4.256;2023-08-12T05:33:39;101519.59;;;24.60;57.83
48517;BME280;34310;51.904;4.256;2023-08-12T05:36:06;101521.34;;;24.60;58.07
48517;BME280;34310;51.904;4.256;2023-08-12T05:38:32;101515.03;;;24.55;58.12
48517;BME280;34310;51.904;4.256;2023-08-12T05:40:59;101523.97;;;24.60;58.07
48517;BME280;34310;51.904;4.256;2023-08-12T05:43:25;101513.28;;;24.55;58.08
48517;BME280;34310;51.904;4.256;2023-08-12T05:45:52;101511.47;;;24.53;57.90
48517;BME280;34310;51.904;4.256;2023-08-12T05:48:18;101507.97;;;24.54;58.05
48517;BME280;34310;51.904;4.256;2023-08-12T05:50:45;101518.66;;;24.58;58.15
48517;BME280;34310;51.904;4.256;2023-08-12T05:53:11;101527.47;;;24.59;58.29
48517;BME280;34310;51.904;4.256;2023-08-12T05:55:38;101528.34;;;24.58;58.27
48517;BME280;34310;51.904;4.256;2023-08-12T05:58:04;101525.69;;;24.58;58.04
48517;BME280;34310;51.904;4.256;2023-08-12T06:00:30;101521.22;;;24.57;58.02
48517;BME280;34310;51.904;4.256;2023-08-12T06:02:57;101529.16;;;24.57;58.02
48517;BME280;34310;51.904;4.256;2023-08-12T06:05:24;101528.25;;;24.56;58.17
48517;BME280;34310;51.904;4.256;2023-08-12T06:07:50;101533.53;;;24.56;58.32
48517;BME280;34310;51.904;4.256;2023-08-12T06:10:17;101536.19;;;24.56;58.10
48517;BME280;34310;51.904;4.256;2023-08-12T06:12:43;101532.66;;;24.56;58.27
48517;BME280;34310;51.904;4.256;2023-08-12T06:15:10;101521.16;;;24.54;58.07
48517;BME280;34310;51.904;4.256;2023-08-12T06:17:37;101530.00;;;24.56;58.22
48517;BME280;34310;51.904;4.256;2023-08-12T06:20:03;101520.31;;;24.55;58.07
48517;BME280;34310;51.904;4.256;2023-08-12T06:22:30;101522.94;;;24.55;58.33
48517;BME280;34310;51.904;4.256;2023-08-12T06:24:56;101522.06;;;24.54;58.05
48517;BME280;34310;51.904;4.256;2023-08-12T06:27:23;101527.28;;;24.53;58.43
48517;BME280;34310;51.904;4.256;2023-08-12T06:29:50;101527.34;;;24.54;58.06
48517;BME280;34310;51.904;4.256;2023-08-12T06:32:16;101515.88;;;24.54;58.13
48517;BME280;34310;51.904;4.256;2023-08-12T06:34:43;101510.47;;;24.48;58.33
48517;BME280;34310;51.904;4.256;2023-08-12T06:37:09;101523.69;;;24.49;58.41
48517;BME280;34310;51.904;4.256;2023-08-12T06:39:36;101544.91;;;24.54;58.29
48517;BME280;34310;51.904;4.256;2023-08-12T06:42:02;101555.47;;;24.54;58.27
48517;BME280;34310;51.904;4.256;2023-08-12T06:44:29;101551.94;;;24.53;58.31
48517;BME280;34310;51.904;4.256;2023-08-12T06:46:55;101570.44;;;24.53;58.27
48517;BME280;34310;51.904;4.256;2023-08-12T06:49:22;101563.38;;;24.52;58.39
48517;BME280;34310;51.904;4.256;2023-08-12T06:51:48;101566.84;;;24.51;58.46
48517;BME280;34310;51.904;4.256;2023-08-12T06:54:15;101572.13;;;24.51;58.16
48517;BME280;34310;51.904;4.256;2023-08-12T06:56:41;101586.22;;;24.52;58.42
48517;BME280;34310;51.904;4.256;2023-08-12T06:59:08;101571.28;;;24.52;58.33
48517;BME280;34310;51.904;4.256;2023-08-12T07:01:34;101578.31;;;24.52;58.37
48517;BME280;34310;51.904;4.256;2023-08-12T07:04:01;101572.00;;;24.45;58.20
48517;BME280;34310;51.904;4.256;2023-08-12T07:06:27;101577.41;;;24.51;58.37
48517;BME280;34310;51.904;4.256;2023-08-12T07:08:54;101570.34;;;24.50;58.39
48517;BME280;34310;51.904;4.256;2023-08-12T07:11:21;101569.47;;;24.50;58.31
48517;BME280;34310;51.904;4.256;2023-08-12T07:13:47;101570.34;;;24.50;58.43
48517;BME280;34310;51.904;4.256;2023-08-12T07:16:14;101567.69;;;24.49;58.48
48517;BME280;34310;51.904;4.256;2023-08-12T07:18:40;101563.28;;;24.49;58.44
48517;BME280;34310;51.904;4.256;2023-08-12T07:21:07;101574.75;;;24.50;58.43
48517;BME280;34310;51.904;4.256;2023-08-12T07:23:33;101559.75;;;24.49;58.26
48517;BME280;34310;51.904;4.256;2023-08-12T07:26:00;101553.56;;;24.47;58.33
48517;BME280;34310;51.904;4.256;2023-08-12T07:28:26;101558.88;;;24.48;58.37
48517;BME280;34310;51.904;4.256;2023-08-12T07:30:53;101560.63;;;24.48;58.46
48517;BME280;34310;51.904;4.256;2023-08-12T07:33:20;101570.28;;;24.47;58.61
48517;BME280;34310;51.904;4.256;2023-08-12T07:35:46;101568.53;;;24.48;58.44
48517;BME280;34310;51.904;4.256;2023-08-12T07:38:13;101572.06;;;24.48;58.27
48517;BME280;34310;51.904;4.256;2023-08-12T07:40:40;101573.66;;;24.42;58.36
48517;BME280;34310;51.904;4.256;2023-08-12T07:43:07;101584.34;;;24.46;58.22
48517;BME280;34310;51.904;4.256;2023-08-12T07:45:34;101584.38;;;24.48;58.33
48517;BME280;34310;51.904;4.256;2023-08-12T07:48:00;101588.75;;;24.47;58.42
48517;BME280;34310;51.904;4.256;2023-08-12T07:50:27;101585.22;;;24.47;58.53
48517;BME280;34310;51.904;4.256;2023-08-12T07:52:53;101580.84;;;24.47;58.31
48517;BME280;34310;51.904;4.256;2023-08-12T07:55:20;101569.28;;;24.42;58.42
48517;BME280;34310;51.904;4.256;2023-08-12T07:57:46;101559.69;;;24.46;58.58
48517;BME280;34310;51.904;4.256;2023-08-12T08:00:13;101567.59;;;24.46;58.47
48517;BME280;34310;51.904;4.256;2023-08-12T08:02:40;101576.38;;;24.45;58.13
48517;BME280;34310;51.904;4.256;2023-08-12T08:05:07;101583.41;;;24.44;58.51
48517;BME280;34310;51.904;4.256;2023-08-12T08:07:33;101577.25;;;24.45;58.49
48517;BME280;34310;51.904;4.256;2023-08-12T08:10:00;101572.84;;;24.44;58.30
48517;BME280;34310;51.904;4.256;2023-08-12T08:12:26;101575.47;;;24.44;58.34
48517;BME280;34310;51.904;4.256;2023-08-12T08:14:53;101574.59;;;24.44;58.43
48517;BME280;34310;51.904;4.256;2023-08-12T08:17:19;101563.00;;;24.37;58.32
48517;BME280;34310;51.904;4.256;2023-08-12T08:19:46;101558.56;;;24.36;58.40
48517;BME280;34310;51.904;4.256;2023-08-12T08:22:12;101568.25;;;24.37;58.60
48517;BME280;34310;51.904;4.256;2023-08-12T08:24:39;101578.97;;;24.43;58.36
48517;BME280;34310;51.904;4.256;2023-08-12T08:27:06;101578.97;;;24.43;58.29
48517;BME280;34310;51.904;4.256;2023-08-12T08:29:32;101578.97;;;24.43;58.43
48517;BME280;34310;51.904;4.256;2023-08-12T08:31:59;101571.06;;;24.43;58.56
48517;BME280;34310;51.904;4.256;2023-08-12T08:34:25;101576.28;;;24.42;58.50
48517;BME280;34310;51.904;4.256;2023-08-12T08:36:52;101573.63;;;24.40;58.41
48517;BME280;34310;51.904;4.256;2023-08-12T08:39:18;101569.28;;;24.42;58.63
48517;BME280;34310;51.904;4.256;2023-08-12T08:41:47;101562.16;;;24.39;58.67
48517;BME280;34310;51.904;4.256;2023-08-12T08:44:15;101571.06;;;24.43;58.50
48517;BME280;34310;51.904;4.256;2023-08-12T08:46:43;101575.44;;;24.43;58.78
48517;BME280;34310;51.904;4.256;2023-08-12T08:49:10;101574.56;;;24.42;58.70
48517;BME280;34310;51.904;4.256;2023-08-12T08:51:38;101573.72;;;24.45;58.62
48517;BME280;34310;51.904;4.256;2023-08-12T08:54:05;101575.47;;;24.44;58.73
48517;BME280;34310;51.904;4.256;2023-08-12T08:56:32;101577.22;;;24.44;58.57
48517;BME280;34310;51.904;4.256;2023-08-12T08:58:59;101588.69;;;24.44;58.79
48517;BME280;34310;51.904;4.256;2023-08-12T09:01:27;101586.94;;;24.45;58.78
48517;BME280;34310;51.904;4.256;2023-08-12T09:03:55;101596.63;;;24.46;58.89
48517;BME280;34310;51.904;4.256;2023-08-12T09:06:24;101601.88;;;24.44;58.55
48517;BME280;34310;51.904;4.256;2023-08-12T09:08:51;101588.72;;;24.46;58.82
48517;BME280;34310;51.904;4.256;2023-08-12T09:11:18;101594.75;;;24.40;58.65
48517;BME280;34310;51.904;4.256;2023-08-12T09:13:46;101610.72;;;24.46;58.82
48517;BME280;34310;51.904;4.256;2023-08-12T09:16:13;101615.13;;;24.46;58.71
48517;BME280;34310;51.904;4.256;2023-08-12T09:18:42;101608.09;;;24.46;58.76
48517;BME280;34310;51.904;4.256;2023-08-12T09:21:10;101606.38;;;24.48;58.74
48517;BME280;34310;51.904;4.256;2023-08-12T09:23:40;101603.59;;;24.42;59.01
48517;BME280;34310;51.904;4.256;2023-08-12T09:26:16;101608.09;;;24.46;58.86
48517;BME280;34310;51.904;4.256;2023-08-12T09:28:44;101616.94;;;24.48;58.97
48517;BME280;34310;51.904;4.256;2023-08-12T09:31:25;101613.34;;;24.45;58.68
48517;BME280;34310;51.904;4.256;2023-08-12T09:33:53;101618.66;;;24.46;58.95
48517;BME280;34310;51.904;4.256;2023-08-12T09:36:21;101635.41;;;24.48;58.60
48517;BME280;34310;51.904;4.256;2023-08-12T09:38:48;101642.50;;;24.49;58.82
48517;BME280;34310;51.904;4.256;2023-08-12T09:41:15;101637.22;;;24.49;58.96
48517;BME280;34310;51.904;4.256;2023-08-12T09:43:42;101631.94;;;24.49;59.02
48517;BME280;34310;51.904;4.256;2023-08-12T09:46:12;101633.72;;;24.50;58.94
48517;BME280;34310;51.904;4.256;2023-08-12T09:48:38;101640.78;;;24.51;58.94
48517;BME280;34310;51.904;4.256;2023-08-12T09:51:05;101649.56;;;24.50;58.93
48517;BME280;34310;51.904;4.256;2023-08-12T09:53:32;101645.22;;;24.52;58.99
48517;BME280;34310;51.904;4.256;2023-08-12T09:56:07;101642.56;;;24.52;58.71
48517;BME280;34310;51.904;4.256;2023-08-12T09:58:35;101626.56;;;24.46;59.10
48517;BME280;34310;51.904;4.256;2023-08-12T10:01:02;101638.13;;;24.51;58.93
48517;BME280;34310;51.904;4.256;2023-08-12T10:03:29;101648.75;;;24.53;58.98
48517;BME280;34310;51.904;4.256;2023-08-12T10:05:57;101638.13;;;24.51;58.94
48517;BME280;34310;51.904;4.256;2023-08-12T10:08:27;101642.53;;;24.51;58.82
48517;BME280;34310;51.904;4.256;2023-08-12T10:10:54;101639.06;;;24.53;59.14
48517;BME280;34310;51.904;4.256;2023-08-12T10:13:37;101640.81;;;24.53;58.99
48517;BME280;34310;51.904;4.256;2023-08-12T10:16:04;101641.75;;;24.55;59.00
48517;BME280;34310;51.904;4.256;2023-08-12T10:18:31;101640.81;;;24.53;59.14
48517;BME280;34310;51.904;4.256;2023-08-12T10:20:59;101638.22;;;24.54;59.06
48517;BME280;34310;51.904;4.256;2023-08-12T10:23:27;101639.16;;;24.56;59.10
48517;BME280;34310;51.904;4.256;2023-08-12T10:25:54;101636.50;;;24.56;59.04
48517;BME280;34310;51.904;4.256;2023-08-12T10:28:21;101635.63;;;24.56;59.13
48517;BME280;34310;51.904;4.256;2023-08-12T10:30:49;101630.38;;;24.57;58.91
48517;BME280;34310;51.904;4.256;2023-08-12T10:33:15;101630.38;;;24.57;59.18
48517;BME280;34310;51.904;4.256;2023-08-12T10:35:43;101610.72;;;24.46;58.86
48517;BME280;34310;51.904;4.256;2023-08-12T10:38:17;101631.31;;;24.58;59.07
48517;BME280;34310;51.904;4.256;2023-08-12T10:40:44;101636.63;;;24.59;59.25
48517;BME280;34310;51.904;4.256;2023-08-12T10:43:12;101638.38;;;24.59;59.24
48517;BME280;34310;51.904;4.256;2023-08-12T10:45:52;101639.31;;;24.61;58.85
48517;BME280;34310;51.904;4.256;2023-08-12T10:48:23;101637.50;;;24.60;59.00
48517;BME280;34310;51.904;4.256;2023-08-12T10:50:54;101641.97;;;24.62;59.11
48517;BME280;34310;51.904;4.256;2023-08-12T10:53:25;101635.81;;;24.62;59.09
48517;BME280;34310;51.904;4.256;2023-08-12T10:55:55;101631.41;;;24.62;58.90
48517;BME280;34310;51.904;4.256;2023-08-12T10:58:26;101635.81;;;24.62;59.08
48517;BME280;34310;51.904;4.256;2023-08-12T11:00:54;101634.94;;;24.63;59.08
48517;BME280;34310;51.904;4.256;2023-08-12T11:03:22;101630.53;;;24.62;59.06
48517;BME280;34310;51.904;4.256;2023-08-12T11:05:49;101629.72;;;24.64;58.89
48517;BME280;34310;51.904;4.256;2023-08-12T11:08:16;101624.38;;;24.63;58.96
48517;BME280;34310;51.904;4.256;2023-08-12T11:10:43;101635.91;;;24.66;58.87
48517;BME280;34310;51.904;4.256;2023-08-12T11:13:09;101629.75;;;24.66;58.81
48517;BME280;34310;51.904;4.256;2023-08-12T11:18:10;101636.84;;;24.68;58.92
48517;BME280;34310;51.904;4.256;2023-08-12T11:20:37;101640.38;;;24.69;58.71
48517;BME280;34310;51.904;4.256;2023-08-12T11:23:05;101633.34;;;24.69;58.92
48517;BME280;34310;51.904;4.256;2023-08-12T11:25:33;101636.00;;;24.69;59.10
48517;BME280;34310;51.904;4.256;2023-08-12T11:28:00;101634.25;;;24.70;58.93
48517;BME280;34310;51.904;4.256;2023-08-12T11:30:27;101632.47;;;24.69;59.08
48517;BME280;34310;51.904;4.256;2023-08-12T11:32:59;101624.63;;;24.72;58.82
48517;BME280;34310;51.904;4.256;2023-08-12T11:35:26;101621.00;;;24.68;58.78
48517;BME280;34310;51.904;4.256;2023-08-12T11:37:55;101637.00;;;24.75;58.84
48517;BME280;34310;51.904;4.256;2023-08-12T11:40:23;101633.47;;;24.74;58.81
48517;BME280;34310;51.904;4.256;2023-08-12T11:42:51;101627.31;;;24.75;59.00
48517;BME280;34310;51.904;4.256;2023-08-12T11:45:23;101620.22;;;24.73;58.91
48517;BME280;34310;51.904;4.256;2023-08-12T11:47:50;101632.69;;;24.78;58.84
48517;BME280;34310;51.904;4.256;2023-08-12T11:50:16;101628.28;;;24.79;58.79
48517;BME280;34310;51.904;4.256;2023-08-12T11:52:43;101635.38;;;24.80;59.05
48517;BME280;34310;51.904;4.256;2023-08-12T11:55:09;101633.63;;;24.80;58.87
48517;BME280;34310;51.904;4.256;2023-08-12T11:57:39;101646.84;;;24.82;58.77
48517;BME280;34310;51.904;4.256;2023-08-12T12:00:06;101632.66;;;24.77;58.76
48517;BME280;34310;51.904;4.256;2023-08-12T12:02:36;101646.84;;;24.82;58.78
48517;BME280;34310;51.904;4.256;2023-08-12T12:05:10;101649.50;;;24.82;58.72
48517;BME280;34310;51.904;4.256;2023-08-12T12:07:37;101652.22;;;24.85;58.89
48517;BME280;34310;51.904;4.256;2023-08-12T12:10:04;101656.66;;;24.86;58.96
48517;BME280;34310;51.904;4.256;2023-08-12T12:12:34;101656.66;;;24.86;59.00
48517;BME280;34310;51.904;4.256;2023-08-12T12:15:01;101662.03;;;24.89;58.94
48517;BME280;34310;51.904;4.256;2023-08-12T12:17:27;101653.97;;;24.84;59.01
48517;BME280;34310;51.904;4.256;2023-08-12T12:19:59;101653.22;;;24.88;58.80
48517;BME280;34310;51.904;4.256;2023-08-12T12:22:27;101655.84;;;24.88;58.77
48517;BME280;34310;51.904;4.256;2023-08-12T12:24:53;101677.97;;;24.92;58.91
48517;BME280;34310;51.904;4.256;2023-08-12T12:27:20;101673.56;;;24.92;58.74
48517;BME280;34310;51.904;4.256;2023-08-12T12:29:47;101670.06;;;24.93;59.00
48517;BME280;34310;51.904;4.256;2023-08-12T12:32:13;101677.16;;;24.94;58.83
48517;BME280;34310;51.904;4.256;2023-08-12T12:34:40;101669.16;;;24.91;59.07
48517;BME280;34310;51.904;4.256;2023-08-12T12:37:06;101667.34;;;24.90;58.96
48517;BME280;34310;51.904;4.256;2023-08-12T12:39:33;101669.28;;;24.97;58.88
48517;BME280;34310;51.904;4.256;2023-08-12T12:41:59;101667.53;;;24.98;58.86
48517;BME280;34310;51.904;4.256;2023-08-12T12:44:26;101678.19;;;24.99;59.11
48517;BME280;34310;51.904;4.256;2023-08-12T12:46:52;101669.38;;;24.99;58.88
48517;BME280;34310;51.904;4.256;2023-08-12T12:49:19;101674.69;;;25.00;58.81
48517;BME280;34310;51.904;4.256;2023-08-12T12:51:46;101670.25;;;24.99;58.82
48517;BME280;34310;51.904;4.256;2023-08-12T12:54:12;101672.97;;;25.02;58.89
48517;BME280;34310;51.904;4.256;2023-08-12T12:56:39;101672.13;;;25.04;58.78